sensor_id;sensor_type;location;lat;lon;timestamp;temperature;humidity
68804;SHT31;55787;52.678;13.314;2022-11-06T00:00:25;2.44;99.99
68804;SHT31;55787;52.678;13.314;2022-11-06T00:02:51;2.37;99.99
68804;SHT31;55787;52.678;13.314;2022-11-06T00:05:18;2.30;99.99
68804;SHT31;55787;52.678;13.314;2022-11-06T00:08:03;2.26;99.99
68804;SHT31;55787;52.678;13.314;2022-11-06T00:10:30;2.19;99.99
68804;SHT31;55787;52.678;13.314;2022-11-06T00:12:58;2.19;99.99
68804;SHT31;55787;52.678;13.314;2022-11-06T00:15:25;2.14;99.99
68804;SHT31;55787;52.678;13.314;2022-11-06T00:17:51;2.10;99.99
68804;SHT31;55787;52.678;13.314;2022-11-06T00:20:17;2.09;99.99
68804;SHT31;55787;52.678;13.314;2022-11-06T00:22:44;2.06;99.99
68804;SHT31;55787;52.678;13.314;2022-11-06T00:25:11;2.06;99.99
68804;SHT31;55787;52.678;13.314;2022-11-06T00:27:38;2.03;99.99
68804;SHT31;55787;52.678;13.314;2022-11-06T00:30:07;2.00;99.99
68804;SHT31;55787;52.678;13.314;2022-11-06T00:32:37;2.00;99.99
68804;SHT31;55787;52.678;13.314;2022-11-06T00:35:05;1.99;99.99
68804;SHT31;55787;52.678;13.314;2022-11-06T00:37:33;2.03;99.99
68804;SHT31;55787;52.678;13.314;2022-11-06T00:39:59;2.02;99.99
68804;SHT31;55787;52.678;13.314;2022-11-06T00:42:26;2.02;99.99
68804;SHT31;55787;52.678;13.314;2022-11-06T00:44:52;2.02;99.99
68804;SHT31;55787;52.678;13.314;2022-11-06T00:47:19;2.00;99.99
68804;SHT31;55787;52.678;13.314;2022-11-06T00:49:45;2.05;99.99
68804;SHT31;55787;52.678;13.314;2022-11-06T00:52:12;2.05;99.99
68804;SHT31;55787;52.678;13.314;2022-11-06T00:54:38;2.03;99.99
68804;SHT31;55787;52.678;13.314;2022-11-06T00:57:05;2.05;99.99
68804;SHT31;55787;52.678;13.314;2022-11-06T00:59:32;2.06;99.99
68804;SHT31;55787;52.678;13.314;2022-11-06T01:01:58;2.06;99.99
68804;SHT31;55787;52.678;13.314;2022-11-06T01:04:25;2.09;99.99
68804;SHT31;55787;52.678;13.314;2022-11-06T01:06:53;2.09;99.99
68804;SHT31;55787;52.678;13.314;2022-11-06T01:09:24;2.13;99.99
68804;SHT31;55787;52.678;13.314;2022-11-06T01:11:55;2.13;99.99
68804;SHT31;55787;52.678;13.314;2022-11-06T01:14:40;2.13;99.99
68804;SHT31;55787;52.678;13.314;2022-11-06T01:17:07;2.09;99.99
68804;SHT31;55787;52.678;13.314;2022-11-06T01:19:33;2.06;99.99
68804;SHT31;55787;52.678;13.314;2022-11-06T01:22:00;2.06;99.99
68804;SHT31;55787;52.678;13.314;2022-11-06T01:24:27;2.00;99.99
68804;SHT31;55787;52.678;13.314;2022-11-06T01:26:55;1.98;99.99
68804;SHT31;55787;52.678;13.314;2022-11-06T01:29:42;1.95;99.99
68804;SHT31;55787;52.678;13.314;2022-11-06T01:32:09;1.95;99.99
68804;SHT31;55787;52.678;13.314;2022-11-06T01:34:36;1.96;99.99
68804;SHT31;55787;52.678;13.314;2022-11-06T01:37:02;1.95;99.99
68804;SHT31;55787;52.678;13.314;2022-11-06T01:39:29;1.98;99.99
68804;SHT31;55787;52.678;13.314;2022-11-06T01:41:56;1.98;99.99
68804;SHT31;55787;52.678;13.314;2022-11-06T01:47:00;2.03;99.99
68804;SHT31;55787;52.678;13.314;2022-11-06T01:49:29;2.05;99.99
68804;SHT31;55787;52.678;13.314;2022-11-06T01:52:01;2.06;99.99
68804;SHT31;55787;52.678;13.314;2022-11-06T01:54:28;2.14;99.99
68804;SHT31;55787;52.678;13.314;2022-11-06T01:56:58;2.16;99.99
68804;SHT31;55787;52.678;13.314;2022-11-06T01:59:27;2.20;99.99
68804;SHT31;55787;52.678;13.314;2022-11-06T02:01:54;2.23;99.99
68804;SHT31;55787;52.678;13.314;2022-11-06T02:04:24;2.30;99.99
68804;SHT31;55787;52.678;13.314;2022-11-06T02:06:51;2.33;99.99
68804;SHT31;55787;52.678;13.314;2022-11-06T02:09:18;2.40;99.99
68804;SHT31;55787;52.678;13.314;2022-11-06T02:11:53;2.44;99.99
68804;SHT31;55787;52.678;13.314;2022-11-06T02:14:30;2.47;99.99
68804;SHT31;55787;52.678;13.314;2022-11-06T02:17:06;2.48;99.99
68804;SHT31;55787;52.678;13.314;2022-11-06T02:25:15;2.45;99.99
68804;SHT31;55787;52.678;13.314;2022-11-06T02:27:47;2.41;99.99
68804;SHT31;55787;52.678;13.314;2022-11-06T02:30:17;2.41;99.99
68804;SHT31;55787;52.678;13.314;2022-11-06T02:32:59;2.38;99.99
68804;SHT31;55787;52.678;13.314;2022-11-06T02:35:47;2.34;99.99
68804;SHT31;55787;52.678;13.314;2022-11-06T02:38:21;2.34;99.99
68804;SHT31;55787;52.678;13.314;2022-11-06T02:40:54;2.31;99.99
68804;SHT31;55787;52.678;13.314;2022-11-06T02:43:26;2.29;99.99
68804;SHT31;55787;52.678;13.314;2022-11-06T02:46:05;2.36;99.99
68804;SHT31;55787;52.678;13.314;2022-11-06T02:48:37;2.40;99.99
68804;SHT31;55787;52.678;13.314;2022-11-06T02:51:09;2.48;99.99
68804;SHT31;55787;52.678;13.314;2022-11-06T02:53:38;2.54;99.99
68804;SHT31;55787;52.678;13.314;2022-11-06T02:56:11;2.60;99.99
68804;SHT31;55787;52.678;13.314;2022-11-06T02:58:43;2.68;99.99
68804;SHT31;55787;52.678;13.314;2022-11-06T03:03:56;2.78;99.99
68804;SHT31;55787;52.678;13.314;2022-11-06T03:06:32;2.78;99.99
68804;SHT31;55787;52.678;13.314;2022-11-06T03:09:06;2.81;99.99
68804;SHT31;55787;52.678;13.314;2022-11-06T03:11:35;2.81;99.99
68804;SHT31;55787;52.678;13.314;2022-11-06T03:16:52;2.72;99.99
68804;SHT31;55787;52.678;13.314;2022-11-06T03:19:38;2.65;99.99
68804;SHT31;55787;52.678;13.314;2022-11-06T03:24:50;2.45;99.99
68804;SHT31;55787;52.678;13.314;2022-11-06T03:27:24;2.38;99.99
68804;SHT31;55787;52.678;13.314;2022-11-06T03:30:14;2.27;99.99
68804;SHT31;55787;52.678;13.314;2022-11-06T03:32:50;2.21;99.99
68804;SHT31;55787;52.678;13.314;2022-11-06T03:35:30;2.13;99.99
68804;SHT31;55787;52.678;13.314;2022-11-06T03:38:20;2.06;99.99
68804;SHT31;55787;52.678;13.314;2022-11-06T03:40:51;2.02;99.99
68804;SHT31;55787;52.678;13.314;2022-11-06T03:43:22;1.98;99.99
68804;SHT31;55787;52.678;13.314;2022-11-06T03:45:51;1.96;99.99
68804;SHT31;55787;52.678;13.314;2022-11-06T03:48:32;1.93;99.99
68804;SHT31;55787;52.678;13.314;2022-11-06T03:51:07;1.93;99.99
68804;SHT31;55787;52.678;13.314;2022-11-06T03:53:47;1.90;99.99
68804;SHT31;55787;52.678;13.314;2022-11-06T03:56:22;1.86;99.99
68804;SHT31;55787;52.678;13.314;2022-11-06T03:58:50;1.85;99.99
68804;SHT31;55787;52.678;13.314;2022-11-06T04:01:23;1.83;99.99
68804;SHT31;55787;52.678;13.314;2022-11-06T04:03:58;1.82;99.99
68804;SHT31;55787;52.678;13.314;2022-11-06T04:06:35;1.82;99.99
68804;SHT31;55787;52.678;13.314;2022-11-06T04:09:04;1.83;99.99
68804;SHT31;55787;52.678;13.314;2022-11-06T04:11:51;1.78;99.99
68804;SHT31;55787;52.678;13.314;2022-11-06T04:14:41;1.79;99.99
68804;SHT31;55787;52.678;13.314;2022-11-06T04:17:12;1.78;99.99
68804;SHT31;55787;52.678;13.314;2022-11-06T04:19:51;1.72;99.99
68804;SHT31;55787;52.678;13.314;2022-11-06T04:22:31;1.72;99.99
68804;SHT31;55787;52.678;13.314;2022-11-06T04:28:16;1.68;99.99
68804;SHT31;55787;52.678;13.314;2022-11-06T04:34:18;1.61;99.99
68804;SHT31;55787;52.678;13.314;2022-11-06T04:36:54;1.55;99.99
68804;SHT31;55787;52.678;13.314;2022-11-06T04:39:36;1.52;99.99
68804;SHT31;55787;52.678;13.314;2022-11-06T04:42:16;1.49;99.99
68804;SHT31;55787;52.678;13.314;2022-11-06T04:44:49;1.49;99.99
68804;SHT31;55787;52.678;13.314;2022-11-06T04:47:19;1.51;99.99
68804;SHT31;55787;52.678;13.314;2022-11-06T04:49:49;1.51;99.99
68804;SHT31;55787;52.678;13.314;2022-11-06T04:52:19;1.48;99.99
68804;SHT31;55787;52.678;13.314;2022-11-06T04:54:47;1.45;99.99
68804;SHT31;55787;52.678;13.314;2022-11-06T04:57:13;1.41;99.99
68804;SHT31;55787;52.678;13.314;2022-11-06T04:59:40;1.38;99.99
68804;SHT31;55787;52.678;13.314;2022-11-06T05:02:07;1.32;99.99
68804;SHT31;55787;52.678;13.314;2022-11-06T05:04:34;1.30;99.99
68804;SHT31;55787;52.678;13.314;2022-11-06T05:07:00;1.28;99.99
68804;SHT31;55787;52.678;13.314;2022-11-06T05:09:27;1.28;99.99
68804;SHT31;55787;52.678;13.314;2022-11-06T05:11:54;1.23;99.99
68804;SHT31;55787;52.678;13.314;2022-11-06T05:14:20;1.23;99.99
68804;SHT31;55787;52.678;13.314;2022-11-06T05:16:47;1.20;99.99
68804;SHT31;55787;52.678;13.314;2022-11-06T05:19:13;1.18;99.99
68804;SHT31;55787;52.678;13.314;2022-11-06T05:21:39;1.14;99.99
68804;SHT31;55787;52.678;13.314;2022-11-06T05:24:25;1.16;99.99
68804;SHT31;55787;52.678;13.314;2022-11-06T05:26:51;1.14;99.99
68804;SHT31;55787;52.678;13.314;2022-11-06T05:29:24;1.13;99.99
68804;SHT31;55787;52.678;13.314;2022-11-06T05:31:51;1.13;99.99
68804;SHT31;55787;52.678;13.314;2022-11-06T05:34:18;1.14;99.99
68804;SHT31;55787;52.678;13.314;2022-11-06T05:36:44;1.14;99.99
68804;SHT31;55787;52.678;13.314;2022-11-06T05:39:11;1.16;99.99
68804;SHT31;55787;52.678;13.314;2022-11-06T05:41:38;1.16;99.99
68804;SHT31;55787;52.678;13.314;2022-11-06T05:44:04;1.11;99.99
68804;SHT31;55787;52.678;13.314;2022-11-06T05:46:31;1.11;99.99
68804;SHT31;55787;52.678;13.314;2022-11-06T05:49:16;1.07;99.99
68804;SHT31;55787;52.678;13.314;2022-11-06T05:51:43;1.08;99.99
68804;SHT31;55787;52.678;13.314;2022-11-06T05:54:10;1.04;99.99
68804;SHT31;55787;52.678;13.314;2022-11-06T05:56:36;1.03;99.99
68804;SHT31;55787;52.678;13.314;2022-11-06T05:59:03;1.03;99.99
68804;SHT31;55787;52.678;13.314;2022-11-06T06:01:29;1.00;99.99
68804;SHT31;55787;52.678;13.314;2022-11-06T06:03:56;0.99;99.99
68804;SHT31;55787;52.678;13.314;2022-11-06T06:06:23;0.97;99.99
68804;SHT31;55787;52.678;13.314;2022-11-06T06:08:49;0.99;99.99
68804;SHT31;55787;52.678;13.314;2022-11-06T06:11:16;1.01;99.99
68804;SHT31;55787;52.678;13.314;2022-11-06T06:13:42;1.04;99.99
68804;SHT31;55787;52.678;13.314;2022-11-06T06:16:09;1.10;99.99
68804;SHT31;55787;52.678;13.314;2022-11-06T06:18:35;1.17;99.99
68804;SHT31;55787;52.678;13.314;2022-11-06T06:21:02;1.20;99.99
68804;SHT31;55787;52.678;13.314;2022-11-06T06:23:29;1.27;99.99
68804;SHT31;55787;52.678;13.314;2022-11-06T06:25:56;1.28;99.99
68804;SHT31;55787;52.678;13.314;2022-11-06T06:28:22;1.38;99.99
68804;SHT31;55787;52.678;13.314;2022-11-06T06:30:49;1.47;99.99
68804;SHT31;55787;52.678;13.314;2022-11-06T06:33:15;1.55;99.99
68804;SHT31;55787;52.678;13.314;2022-11-06T06:35:42;1.55;99.99
68804;SHT31;55787;52.678;13.314;2022-11-06T06:38:08;1.59;99.99
68804;SHT31;55787;52.678;13.314;2022-11-06T06:40:35;1.62;99.99
68804;SHT31;55787;52.678;13.314;2022-11-06T06:43:02;1.65;99.99
68804;SHT31;55787;52.678;13.314;2022-11-06T06:45:29;1.69;99.99
68804;SHT31;55787;52.678;13.314;2022-11-06T06:48:03;1.76;99.99
68804;SHT31;55787;52.678;13.314;2022-11-06T06:50:29;1.80;99.99
68804;SHT31;55787;52.678;13.314;2022-11-06T06:52:57;1.93;99.99
68804;SHT31;55787;52.678;13.314;2022-11-06T06:55:24;2.05;99.99
68804;SHT31;55787;52.678;13.314;2022-11-06T06:57:57;2.17;99.99
68804;SHT31;55787;52.678;13.314;2022-11-06T07:00:28;2.30;99.99
68804;SHT31;55787;52.678;13.314;2022-11-06T07:02:54;2.36;99.99
68804;SHT31;55787;52.678;13.314;2022-11-06T07:05:21;2.50;99.99
68804;SHT31;55787;52.678;13.314;2022-11-06T07:07:48;2.65;99.99
68804;SHT31;55787;52.678;13.314;2022-11-06T07:10:15;2.98;99.99
68804;SHT31;55787;52.678;13.314;2022-11-06T07:12:42;3.26;99.99
68804;SHT31;55787;52.678;13.314;2022-11-06T07:15:09;3.40;99.99
68804;SHT31;55787;52.678;13.314;2022-11-06T07:17:35;3.53;99.99
68804;SHT31;55787;52.678;13.314;2022-11-06T07:20:02;3.61;99.99
68804;SHT31;55787;52.678;13.314;2022-11-06T07:22:29;3.66;99.99
68804;SHT31;55787;52.678;13.314;2022-11-06T07:25:03;3.71;99.99
68804;SHT31;55787;52.678;13.314;2022-11-06T07:27:29;3.81;99.99
68804;SHT31;55787;52.678;13.314;2022-11-06T07:29:56;3.78;99.99
68804;SHT31;55787;52.678;13.314;2022-11-06T07:32:22;3.82;99.99
68804;SHT31;55787;52.678;13.314;2022-11-06T07:34:49;3.91;99.99
68804;SHT31;55787;52.678;13.314;2022-11-06T07:37:15;3.99;99.99
68804;SHT31;55787;52.678;13.314;2022-11-06T07:39:42;4.06;99.99
68804;SHT31;55787;52.678;13.314;2022-11-06T07:42:08;4.13;99.99
68804;SHT31;55787;52.678;13.314;2022-11-06T07:44:35;4.28;99.99
68804;SHT31;55787;52.678;13.314;2022-11-06T07:47:01;4.31;99.99
68804;SHT31;55787;52.678;13.314;2022-11-06T07:49:28;4.35;99.99
68804;SHT31;55787;52.678;13.314;2022-11-06T07:51:54;4.48;99.99
68804;SHT31;55787;52.678;13.314;2022-11-06T07:54:21;4.57;99.99
68804;SHT31;55787;52.678;13.314;2022-11-06T07:56:47;4.56;99.99
68804;SHT31;55787;52.678;13.314;2022-11-06T07:59:13;4.57;99.99
68804;SHT31;55787;52.678;13.314;2022-11-06T08:01:40;4.66;99.99
68804;SHT31;55787;52.678;13.314;2022-11-06T08:04:07;4.71;99.99
68804;SHT31;55787;52.678;13.314;2022-11-06T08:06:33;4.85;99.99
68804;SHT31;55787;52.678;13.314;2022-11-06T08:09:04;4.97;99.99
68804;SHT31;55787;52.678;13.314;2022-11-06T08:11:31;5.11;99.99
68804;SHT31;55787;52.678;13.314;2022-11-06T08:13:59;5.17;99.99
68804;SHT31;55787;52.678;13.314;2022-11-06T08:16:26;5.38;98.04
68804;SHT31;55787;52.678;13.314;2022-11-06T08:18:53;5.49;99.23
68804;SHT31;55787;52.678;13.314;2022-11-06T08:21:19;5.67;98.35
68804;SHT31;55787;52.678;13.314;2022-11-06T08:23:46;5.77;96.92
68804;SHT31;55787;52.678;13.314;2022-11-06T08:26:12;5.76;97.98
68804;SHT31;55787;52.678;13.314;2022-11-06T08:28:39;5.93;95.06
68804;SHT31;55787;52.678;13.314;2022-11-06T08:31:06;5.92;96.72
68804;SHT31;55787;52.678;13.314;2022-11-06T08:33:34;5.97;95.79
68804;SHT31;55787;52.678;13.314;2022-11-06T08:36:04;6.06;96.21
68804;SHT31;55787;52.678;13.314;2022-11-06T08:38:31;6.27;94.87
68804;SHT31;55787;52.678;13.314;2022-11-06T08:41:03;6.40;94.56
68804;SHT31;55787;52.678;13.314;2022-11-06T08:43:30;6.48;93.04
68804;SHT31;55787;52.678;13.314;2022-11-06T08:45:58;6.48;93.69
68804;SHT31;55787;52.678;13.314;2022-11-06T08:48:24;6.67;93.43
68804;SHT31;55787;52.678;13.314;2022-11-06T08:50:51;6.76;91.72
68804;SHT31;55787;52.678;13.314;2022-11-06T08:53:17;6.79;92.48
68804;SHT31;55787;52.678;13.314;2022-11-06T08:55:44;6.83;92.03
68804;SHT31;55787;52.678;13.314;2022-11-06T08:58:11;6.95;90.57
68804;SHT31;55787;52.678;13.314;2022-11-06T09:00:39;7.07;89.84
68804;SHT31;55787;52.678;13.314;2022-11-06T09:03:08;7.20;91.23
68804;SHT31;55787;52.678;13.314;2022-11-06T09:05:38;7.37;89.47
68804;SHT31;55787;52.678;13.314;2022-11-06T09:08:04;7.61;89.37
68804;SHT31;55787;52.678;13.314;2022-11-06T09:10:31;7.78;90.11
68804;SHT31;55787;52.678;13.314;2022-11-06T09:12:58;8.61;87.33
68804;SHT31;55787;52.678;13.314;2022-11-06T09:15:25;9.15;85.08
68804;SHT31;55787;52.678;13.314;2022-11-06T09:17:52;9.59;82.65
68804;SHT31;55787;52.678;13.314;2022-11-06T09:20:20;10.92;80.07
68804;SHT31;55787;52.678;13.314;2022-11-06T09:22:47;11.70;72.30
68804;SHT31;55787;52.678;13.314;2022-11-06T09:25:13;13.16;71.75
68804;SHT31;55787;52.678;13.314;2022-11-06T09:30:09;14.23;64.96
68804;SHT31;55787;52.678;13.314;2022-11-06T09:32:36;13.86;65.16
68804;SHT31;55787;52.678;13.314;2022-11-06T09:35:03;12.46;66.60
68804;SHT31;55787;52.678;13.314;2022-11-06T09:37:30;13.58;66.27
68804;SHT31;55787;52.678;13.314;2022-11-06T09:39:56;15.58;60.24
68804;SHT31;55787;52.678;13.314;2022-11-06T09:45:20;15.55;58.76
68804;SHT31;55787;52.678;13.314;2022-11-06T09:50:39;15.70;58.31
68804;SHT31;55787;52.678;13.314;2022-11-06T09:53:14;16.63;55.83
68804;SHT31;55787;52.678;13.314;2022-11-06T09:55:43;14.92;58.49
68804;SHT31;55787;52.678;13.314;2022-11-06T09:58:15;13.73;62.46
68804;SHT31;55787;52.678;13.314;2022-11-06T10:00:43;14.28;62.51
68804;SHT31;55787;52.678;13.314;2022-11-06T10:05:45;13.14;66.10
68804;SHT31;55787;52.678;13.314;2022-11-06T10:08:24;11.74;70.44
68804;SHT31;55787;52.678;13.314;2022-11-06T10:11:17;11.45;71.55
68804;SHT31;55787;52.678;13.314;2022-11-06T10:16:39;11.65;70.50
68804;SHT31;55787;52.678;13.314;2022-11-06T10:19:37;11.35;71.62
68804;SHT31;55787;52.678;13.314;2022-11-06T10:22:15;10.59;72.91
68804;SHT31;55787;52.678;13.314;2022-11-06T10:25:26;10.54;74.17
68804;SHT31;55787;52.678;13.314;2022-11-06T10:27:40;10.83;73.77
68804;SHT31;55787;52.678;13.314;2022-11-06T10:30:13;10.77;74.05
68804;SHT31;55787;52.678;13.314;2022-11-06T10:33:13;10.92;74.71
68804;SHT31;55787;52.678;13.314;2022-11-06T10:35:57;10.86;75.21
68804;SHT31;55787;52.678;13.314;2022-11-06T10:38:32;10.66;73.41
68804;SHT31;55787;52.678;13.314;2022-11-06T10:41:00;10.73;74.33
68804;SHT31;55787;52.678;13.314;2022-11-06T10:48:39;10.31;75.78
68804;SHT31;55787;52.678;13.314;2022-11-06T10:51:44;10.21;74.97
68804;SHT31;55787;52.678;13.314;2022-11-06T10:59:43;10.32;76.25
68804;SHT31;55787;52.678;13.314;2022-11-06T11:02:23;10.37;75.01
68804;SHT31;55787;52.678;13.314;2022-11-06T11:04:51;10.45;74.22
68804;SHT31;55787;52.678;13.314;2022-11-06T11:07:25;10.66;74.29
68804;SHT31;55787;52.678;13.314;2022-11-06T11:09:53;10.73;74.80
68804;SHT31;55787;52.678;13.314;2022-11-06T11:12:26;10.51;73.60
68804;SHT31;55787;52.678;13.314;2022-11-06T11:15:05;10.48;74.76
68804;SHT31;55787;52.678;13.314;2022-11-06T11:17:35;10.55;74.53
68804;SHT31;55787;52.678;13.314;2022-11-06T11:20:02;10.66;75.12
68804;SHT31;55787;52.678;13.314;2022-11-06T11:22:29;10.82;72.93
68804;SHT31;55787;52.678;13.314;2022-11-06T11:25:07;10.86;72.99
68804;SHT31;55787;52.678;13.314;2022-11-06T11:27:42;10.93;72.64
68804;SHT31;55787;52.678;13.314;2022-11-06T11:30:19;11.00;73.67
68804;SHT31;55787;52.678;13.314;2022-11-06T11:32:46;11.06;73.93
68804;SHT31;55787;52.678;13.314;2022-11-06T11:35:17;11.13;73.19
68804;SHT31;55787;52.678;13.314;2022-11-06T11:37:44;10.99;72.58
68804;SHT31;55787;52.678;13.314;2022-11-06T11:43:24;11.10;73.46
68804;SHT31;55787;52.678;13.314;2022-11-06T11:51:19;11.34;72.41
68804;SHT31;55787;52.678;13.314;2022-11-06T11:53:47;11.40;71.64
68804;SHT31;55787;52.678;13.314;2022-11-06T11:56:16;11.35;72.15
68804;SHT31;55787;52.678;13.314;2022-11-06T11:59:04;11.45;72.51
68804;SHT31;55787;52.678;13.314;2022-11-06T12:01:39;11.33;72.78
68804;SHT31;55787;52.678;13.314;2022-11-06T12:04:30;11.34;72.34
68804;SHT31;55787;52.678;13.314;2022-11-06T12:07:03;11.16;72.87
68804;SHT31;55787;52.678;13.314;2022-11-06T12:09:39;11.35;72.26
68804;SHT31;55787;52.678;13.314;2022-11-06T12:12:19;11.48;72.98
68804;SHT31;55787;52.678;13.314;2022-11-06T12:14:46;11.65;71.79
68804;SHT31;55787;52.678;13.314;2022-11-06T12:17:17;11.72;71.78
68804;SHT31;55787;52.678;13.314;2022-11-06T12:19:50;11.88;70.92
68804;SHT31;55787;52.678;13.314;2022-11-06T12:22:24;12.05;71.43
68804;SHT31;55787;52.678;13.314;2022-11-06T12:24:58;12.16;69.82
68804;SHT31;55787;52.678;13.314;2022-11-06T12:27:48;12.33;69.45
68804;SHT31;55787;52.678;13.314;2022-11-06T12:30:18;12.61;68.98
68804;SHT31;55787;52.678;13.314;2022-11-06T12:32:49;12.80;68.52
68804;SHT31;55787;52.678;13.314;2022-11-06T12:35:28;12.83;67.63
68804;SHT31;55787;52.678;13.314;2022-11-06T12:38:01;12.64;67.98
68804;SHT31;55787;52.678;13.314;2022-11-06T12:40:38;12.53;68.64
68804;SHT31;55787;52.678;13.314;2022-11-06T12:56:58;12.91;67.80
68804;SHT31;55787;52.678;13.314;2022-11-06T13:02:20;12.91;66.40
68804;SHT31;55787;52.678;13.314;2022-11-06T13:05:05;13.02;67.32
68804;SHT31;55787;52.678;13.314;2022-11-06T13:10:34;12.88;67.42
68804;SHT31;55787;52.678;13.314;2022-11-06T13:15:55;12.25;67.84
68804;SHT31;55787;52.678;13.314;2022-11-06T13:18:28;12.63;67.31
68804;SHT31;55787;52.678;13.314;2022-11-06T13:21:00;12.74;67.49
68804;SHT31;55787;52.678;13.314;2022-11-06T13:23:32;12.90;67.65
68804;SHT31;55787;52.678;13.314;2022-11-06T13:28:58;12.73;66.60
68804;SHT31;55787;52.678;13.314;2022-11-06T13:31:34;12.83;67.30
68804;SHT31;55787;52.678;13.314;2022-11-06T13:34:04;12.85;67.17
68804;SHT31;55787;52.678;13.314;2022-11-06T13:36:34;12.33;67.30
68804;SHT31;55787;52.678;13.314;2022-11-06T13:41:31;12.26;67.61
68804;SHT31;55787;52.678;13.314;2022-11-06T13:44:08;12.52;68.32
68804;SHT31;55787;52.678;13.314;2022-11-06T13:51:58;12.49;67.93
68804;SHT31;55787;52.678;13.314;2022-11-06T13:57:44;12.57;69.42
68804;SHT31;55787;52.678;13.314;2022-11-06T14:06:19;12.54;67.18
68804;SHT31;55787;52.678;13.314;2022-11-06T14:08:50;12.49;67.39
68804;SHT31;55787;52.678;13.314;2022-11-06T14:11:23;12.39;67.78
68804;SHT31;55787;52.678;13.314;2022-11-06T14:14:02;12.32;67.57
68804;SHT31;55787;52.678;13.314;2022-11-06T14:16:35;11.89;69.16
68804;SHT31;55787;52.678;13.314;2022-11-06T14:19:21;11.70;70.73
68804;SHT31;55787;52.678;13.314;2022-11-06T14:21:53;11.48;70.54
68804;SHT31;55787;52.678;13.314;2022-11-06T14:26:57;11.14;72.13
68804;SHT31;55787;52.678;13.314;2022-11-06T14:32:10;10.89;73.44
68804;SHT31;55787;52.678;13.314;2022-11-06T14:34:39;10.77;73.61
68804;SHT31;55787;52.678;13.314;2022-11-06T14:42:34;10.52;74.33
68804;SHT31;55787;52.678;13.314;2022-11-06T14:45:09;10.58;74.18
68804;SHT31;55787;52.678;13.314;2022-11-06T14:47:39;10.45;75.79
68804;SHT31;55787;52.678;13.314;2022-11-06T14:50:22;10.40;75.48
68804;SHT31;55787;52.678;13.314;2022-11-06T14:53:15;10.31;75.34
68804;SHT31;55787;52.678;13.314;2022-11-06T14:55:54;10.20;75.84
68804;SHT31;55787;52.678;13.314;2022-11-06T14:58:37;10.11;76.47
68804;SHT31;55787;52.678;13.314;2022-11-06T15:03:50;9.89;77.30
68804;SHT31;55787;52.678;13.314;2022-11-06T15:16:34;9.14;80.75
68804;SHT31;55787;52.678;13.314;2022-11-06T15:19:05;9.02;81.39
68804;SHT31;55787;52.678;13.314;2022-11-06T15:24:28;8.70;82.68
68804;SHT31;55787;52.678;13.314;2022-11-06T15:26:59;8.65;82.21
68804;SHT31;55787;52.678;13.314;2022-11-06T15:29:36;8.49;83.24
68804;SHT31;55787;52.678;13.314;2022-11-06T15:32:10;8.37;83.75
68804;SHT31;55787;52.678;13.314;2022-11-06T15:34:55;8.30;83.98
68804;SHT31;55787;52.678;13.314;2022-11-06T15:37:34;8.16;84.47
68804;SHT31;55787;52.678;13.314;2022-11-06T15:40:03;8.01;84.74
68804;SHT31;55787;52.678;13.314;2022-11-06T15:42:33;7.91;85.23
68804;SHT31;55787;52.678;13.314;2022-11-06T15:45:09;7.81;85.89
68804;SHT31;55787;52.678;13.314;2022-11-06T15:48:01;7.82;85.59
68804;SHT31;55787;52.678;13.314;2022-11-06T15:50:35;7.74;85.90
68804;SHT31;55787;52.678;13.314;2022-11-06T15:53:19;7.64;86.32
68804;SHT31;55787;52.678;13.314;2022-11-06T16:00:55;7.38;87.38
68804;SHT31;55787;52.678;13.314;2022-11-06T16:03:27;7.33;87.69
68804;SHT31;55787;52.678;13.314;2022-11-06T16:05:56;7.27;87.59
68804;SHT31;55787;52.678;13.314;2022-11-06T16:08:25;7.28;87.43
68804;SHT31;55787;52.678;13.314;2022-11-06T16:10:53;7.27;87.50
68804;SHT31;55787;52.678;13.314;2022-11-06T16:13:21;7.22;87.58
68804;SHT31;55787;52.678;13.314;2022-11-06T16:15:54;7.23;87.67
68804;SHT31;55787;52.678;13.314;2022-11-06T16:23:24;7.09;87.84
68804;SHT31;55787;52.678;13.314;2022-11-06T16:26:05;7.02;88.22
68804;SHT31;55787;52.678;13.314;2022-11-06T16:28:33;6.92;88.50
68804;SHT31;55787;52.678;13.314;2022-11-06T16:31:07;6.93;88.66
68804;SHT31;55787;52.678;13.314;2022-11-06T16:33:35;6.89;88.66
68804;SHT31;55787;52.678;13.314;2022-11-06T16:36:10;6.95;88.71
68804;SHT31;55787;52.678;13.314;2022-11-06T16:38:43;6.93;88.72
68804;SHT31;55787;52.678;13.314;2022-11-06T16:41:17;6.91;88.72
68804;SHT31;55787;52.678;13.314;2022-11-06T16:47:20;6.92;88.62
68804;SHT31;55787;52.678;13.314;2022-11-06T16:49:52;6.83;88.51
68804;SHT31;55787;52.678;13.314;2022-11-06T16:52:30;6.72;88.71
68804;SHT31;55787;52.678;13.314;2022-11-06T16:55:03;6.61;89.27
68804;SHT31;55787;52.678;13.314;2022-11-06T16:57:34;6.49;89.32
68804;SHT31;55787;52.678;13.314;2022-11-06T17:00:28;6.40;89.82
68804;SHT31;55787;52.678;13.314;2022-11-06T17:05:32;6.28;90.07
68804;SHT31;55787;52.678;13.314;2022-11-06T17:10:54;6.10;90.80
68804;SHT31;55787;52.678;13.314;2022-11-06T17:13:22;6.13;90.97
68804;SHT31;55787;52.678;13.314;2022-11-06T17:15:58;6.11;90.84
68804;SHT31;55787;52.678;13.314;2022-11-06T17:18:33;6.07;90.87
68804;SHT31;55787;52.678;13.314;2022-11-06T17:21:05;6.06;91.05
68804;SHT31;55787;52.678;13.314;2022-11-06T17:23:33;6.04;90.93
68804;SHT31;55787;52.678;13.314;2022-11-06T17:26:05;5.99;91.18
68804;SHT31;55787;52.678;13.314;2022-11-06T17:28:33;5.96;91.28
68804;SHT31;55787;52.678;13.314;2022-11-06T17:30:59;5.92;91.29
68804;SHT31;55787;52.678;13.314;2022-11-06T17:33:26;5.93;91.50
68804;SHT31;55787;52.678;13.314;2022-11-06T17:35:52;5.97;91.43
68804;SHT31;55787;52.678;13.314;2022-11-06T17:38:19;6.09;91.20
68804;SHT31;55787;52.678;13.314;2022-11-06T17:40:45;6.07;90.71
68804;SHT31;55787;52.678;13.314;2022-11-06T17:43:12;6.00;90.71
68804;SHT31;55787;52.678;13.314;2022-11-06T17:45:41;5.90;91.01
68804;SHT31;55787;52.678;13.314;2022-11-06T17:48:08;5.79;91.13
68804;SHT31;55787;52.678;13.314;2022-11-06T17:50:34;5.66;91.40
68804;SHT31;55787;52.678;13.314;2022-11-06T17:53:21;5.53;91.59
68804;SHT31;55787;52.678;13.314;2022-11-06T17:55:47;5.43;91.98
68804;SHT31;55787;52.678;13.314;2022-11-06T17:58:14;5.34;92.17
68804;SHT31;55787;52.678;13.314;2022-11-06T18:00:41;5.24;92.47
68804;SHT31;55787;52.678;13.314;2022-11-06T18:03:15;5.20;92.58
68804;SHT31;55787;52.678;13.314;2022-11-06T18:05:43;5.08;92.79
68804;SHT31;55787;52.678;13.314;2022-11-06T18:08:11;5.04;93.12
68804;SHT31;55787;52.678;13.314;2022-11-06T18:10:38;4.94;93.09
68804;SHT31;55787;52.678;13.314;2022-11-06T18:13:05;4.88;93.48
68804;SHT31;55787;52.678;13.314;2022-11-06T18:15:33;4.79;93.66